createdAt,value
2022-10-21T00:01:06.146Z,76.34
2022-10-21T00:03:34.416Z,76.30
2022-10-21T00:06:02.623Z,76.76
2022-10-21T00:08:30.908Z,76.58
2022-10-21T00:11:02.999Z,76.42
2022-10-21T00:13:34.075Z,76.35
2022-10-21T00:16:08.162Z,76.35
2022-10-21T00:18:38.547Z,76.46
2022-10-21T00:21:08.534Z,75.76
2022-10-21T00:23:36.885Z,76.11
2022-10-21T00:26:05.732Z,75.88
2022-10-21T00:28:34.339Z,76.02
2022-10-21T00:31:06.460Z,75.80
2022-10-21T00:33:34.564Z,76.00
2022-10-21T00:36:03.966Z,76.08
2022-10-21T00:38:33.459Z,75.57
2022-10-21T00:41:01.944Z,75.92
2022-10-21T00:43:30.466Z,75.89
2022-10-21T00:46:04.747Z,76.28
2022-10-21T00:48:39.526Z,76.43
2022-10-21T00:51:11.600Z,76.79
2022-10-21T00:53:43.850Z,76.94
2022-10-21T00:56:16.863Z,76.12
2022-10-21T00:58:46.739Z,75.32
2022-10-21T01:01:19.405Z,75.61
2022-10-21T01:03:50.327Z,75.59
2022-10-21T01:06:22.741Z,75.30
2022-10-21T01:08:52.984Z,76.20
2022-10-21T01:11:22.437Z,76.25
2022-10-21T01:14:33.237Z,76.52
2022-10-21T01:17:26.542Z,76.31
2022-10-21T01:20:38.768Z,76.54
2022-10-21T01:24:10.316Z,76.00
2022-10-21T01:27:13.568Z,75.03
2022-10-21T01:30:18.122Z,75.23
2022-10-21T01:33:17.739Z,75.01
2022-10-21T01:35:54.405Z,74.95
2022-10-21T01:38:31.678Z,75.28
2022-10-21T01:41:09.431Z,75.18
2022-10-21T01:43:47.496Z,75.77
2022-10-21T01:46:20.291Z,75.60
2022-10-21T01:48:55.668Z,76.00
2022-10-21T01:51:27.726Z,76.17
2022-10-21T01:54:04.331Z,75.77
2022-10-21T01:56:34.441Z,75.91
2022-10-21T01:59:04.730Z,75.65
2022-10-21T02:01:35.841Z,75.70
2022-10-21T02:04:09.490Z,76.10
2022-10-21T02:06:37.708Z,75.96
2022-10-21T02:09:06.043Z,76.52
2022-10-21T02:11:36.620Z,76.03
2022-10-21T02:14:10.544Z,77.43
2022-10-21T02:16:41.647Z,77.17
2022-10-21T02:19:16.425Z,76.58
2022-10-21T02:21:46.627Z,76.48
2022-10-21T02:24:21.800Z,75.94
2022-10-21T02:26:50.135Z,76.24
2022-10-21T02:29:24.835Z,76.09
2022-10-21T02:32:10.039Z,75.67
2022-10-21T02:34:55.325Z,75.97
2022-10-21T02:37:32.660Z,75.84
2022-10-21T02:40:07.733Z,75.62
2022-10-21T02:42:41.415Z,75.98
2022-10-21T02:45:11.322Z,75.64
2022-10-21T02:47:40.537Z,75.98
2022-10-21T02:50:12.928Z,75.98
2022-10-21T02:52:41.018Z,76.12
2022-10-21T02:55:10.121Z,76.22
2022-10-21T02:57:38.332Z,75.61
2022-10-21T03:00:08.023Z,75.60
2022-10-21T03:02:36.161Z,75.83
2022-10-21T03:05:04.689Z,75.68
2022-10-21T03:07:34.090Z,76.05
2022-10-21T03:10:02.232Z,75.84
2022-10-21T03:12:30.281Z,76.09
2022-10-21T03:14:58.478Z,76.11
2022-10-21T03:17:26.533Z,76.15
2022-10-21T03:19:54.574Z,75.84
2022-10-21T03:22:22.568Z,75.88
2022-10-21T03:24:51.992Z,75.60
2022-10-21T03:27:20.104Z,75.72
2022-10-21T03:29:48.198Z,76.19
2022-10-21T03:32:16.312Z,76.06
2022-10-21T03:34:44.475Z,76.23
2022-10-21T03:37:12.540Z,76.09
2022-10-21T03:39:40.556Z,75.94
2022-10-21T03:42:09.920Z,75.87
2022-10-21T03:44:37.994Z,76.03
2022-10-21T03:47:06.049Z,76.40
2022-10-21T03:52:03.189Z,76.63
2022-10-21T03:54:31.235Z,76.10
2022-10-21T03:56:59.316Z,76.33
2022-10-21T03:59:28.937Z,76.14
2022-10-21T04:01:57.084Z,76.49
2022-10-21T04:04:25.160Z,76.18
2022-10-21T04:06:53.271Z,76.43
2022-10-21T04:09:21.328Z,76.37
2022-10-21T04:11:49.360Z,76.28
2022-10-21T04:14:17.495Z,76.33
2022-10-21T04:16:48.080Z,76.46
2022-10-21T04:19:20.064Z,76.22
2022-10-21T04:21:48.553Z,76.13
2022-10-21T04:24:16.597Z,76.45
2022-10-21T04:26:44.728Z,76.29
2022-10-21T04:29:12.850Z,76.55
2022-10-21T04:31:40.995Z,76.17
2022-10-21T04:34:10.481Z,76.19
2022-10-21T04:36:38.524Z,76.24
2022-10-21T04:39:06.715Z,76.59
2022-10-21T04:41:34.979Z,75.78
2022-10-21T04:44:03.351Z,76.08
2022-10-21T04:46:31.553Z,76.08
2022-10-21T04:48:59.817Z,76.33
2022-10-21T04:51:29.342Z,76.63
2022-10-21T04:53:57.489Z,76.57
2022-10-21T04:56:28.148Z,76.61
2022-10-21T04:58:56.213Z,76.52
2022-10-21T05:01:24.337Z,76.54
2022-10-21T05:03:52.468Z,76.80
2022-10-21T05:06:20.606Z,76.52
2022-10-21T05:08:50.145Z,76.54
2022-10-21T05:11:18.300Z,76.67
2022-10-21T05:13:47.105Z,76.88
2022-10-21T05:16:15.240Z,76.47
2022-10-21T05:18:43.404Z,76.90
2022-10-21T05:21:11.510Z,76.57
2022-10-21T05:23:39.838Z,77.25
2022-10-21T05:26:09.462Z,77.38
2022-10-21T05:28:38.057Z,77.57
2022-10-21T05:31:06.535Z,77.80
2022-10-21T05:33:34.636Z,77.95
2022-10-21T05:36:07.858Z,77.68
2022-10-21T05:38:36.482Z,78.30
2022-10-21T05:41:05.117Z,78.66
2022-10-21T05:43:34.728Z,78.53
2022-10-21T05:46:02.795Z,78.53
2022-10-21T05:48:30.919Z,78.66
2022-10-21T05:50:59.124Z,78.11
2022-10-21T05:53:27.482Z,78.55
2022-10-21T05:56:00.918Z,78.14
2022-10-21T05:58:30.862Z,78.65
2022-10-21T06:01:00.904Z,78.74
2022-10-21T06:03:32.382Z,78.23
2022-10-21T06:06:03.425Z,78.98
2022-10-21T06:08:33.837Z,78.89
2022-10-21T06:11:03.357Z,78.40
2022-10-21T06:13:31.712Z,79.04
2022-10-21T06:16:01.632Z,78.69
2022-10-21T06:18:30.251Z,79.02
2022-10-21T06:20:58.299Z,78.44
2022-10-21T06:23:27.062Z,78.81
2022-10-21T06:26:00.057Z,78.93
2022-10-21T06:28:30.473Z,79.16
2022-10-21T06:31:00.583Z,79.09
2022-10-21T06:33:28.739Z,78.65
2022-10-21T06:35:57.366Z,78.84
2022-10-21T06:38:26.498Z,78.61
2022-10-21T06:41:01.393Z,78.68
2022-10-21T06:43:29.772Z,78.91
2022-10-21T06:46:02.253Z,78.66
2022-10-21T06:48:30.936Z,78.68
2022-10-21T06:51:00.685Z,78.50
2022-10-21T06:53:29.369Z,78.68
2022-10-21T06:56:05.053Z,78.46
2022-10-21T06:58:33.456Z,78.48
2022-10-21T07:04:49.948Z,78.32
2022-10-21T07:07:18.087Z,78.38
2022-10-21T07:09:46.494Z,78.09
2022-10-21T07:12:14.652Z,77.76
2022-10-21T07:14:42.715Z,78.14
2022-10-21T07:17:12.166Z,78.44
2022-10-21T07:19:40.279Z,78.69
2022-10-21T07:22:08.329Z,78.61
2022-10-21T07:24:37.185Z,78.61
2022-10-21T07:27:05.430Z,78.54
2022-10-21T07:29:33.722Z,78.46
2022-10-21T07:32:01.806Z,78.61
2022-10-21T07:34:31.229Z,78.43
2022-10-21T07:36:59.280Z,78.47
2022-10-21T07:39:28.603Z,78.57
2022-10-21T07:41:58.795Z,78.63
2022-10-21T07:44:27.739Z,79.01
2022-10-21T07:46:56.535Z,79.32
2022-10-21T07:49:25.566Z,79.33
2022-10-21T07:51:55.008Z,79.04
2022-10-21T07:54:23.289Z,79.04
2022-10-21T07:56:53.591Z,78.92
2022-10-21T07:59:23.559Z,79.05
2022-10-21T08:01:52.933Z,78.99
2022-10-21T08:04:29.633Z,78.91
2022-10-21T08:06:59.775Z,79.07
2022-10-21T08:09:27.899Z,79.18
2022-10-21T08:11:57.049Z,78.82
2022-10-21T08:14:25.427Z,79.07
2022-10-21T08:16:54.429Z,78.83
2022-10-21T08:19:29.446Z,78.92
2022-10-21T08:22:00.809Z,78.76
2022-10-21T08:24:29.147Z,78.93
2022-10-21T08:26:57.285Z,78.52
2022-10-21T08:29:25.401Z,78.54
2022-10-21T08:31:53.692Z,78.44
2022-10-21T08:34:21.854Z,78.29
2022-10-21T08:36:49.979Z,78.31
2022-10-21T08:39:19.457Z,78.61
2022-10-21T08:42:08.606Z,77.92
2022-10-21T08:44:50.630Z,78.08
2022-10-21T08:47:30.526Z,78.85
2022-10-21T08:50:03.896Z,78.77
2022-10-21T08:52:45.477Z,78.50
2022-10-21T08:55:20.490Z,79.09
2022-10-21T08:57:50.106Z,78.73
2022-10-21T09:00:21.834Z,79.04
2022-10-21T09:03:08.507Z,78.84
2022-10-21T09:06:02.617Z,78.76
2022-10-21T09:08:38.220Z,78.46
2022-10-21T09:11:20.343Z,78.63
2022-10-21T09:14:31.786Z,79.23
2022-10-21T09:17:12.101Z,79.11
2022-10-21T09:19:49.905Z,78.73
2022-10-21T09:22:41.088Z,78.35
2022-10-21T09:25:21.886Z,78.59
2022-10-21T09:27:56.486Z,78.73
2022-10-21T09:30:26.539Z,79.65
2022-10-21T09:32:59.796Z,79.29
2022-10-21T09:35:36.073Z,79.68
2022-10-21T09:38:12.997Z,79.99
2022-10-21T09:40:41.156Z,79.96
2022-10-21T09:43:19.153Z,79.85
2022-10-21T09:45:48.103Z,79.92
2022-10-21T09:48:31.620Z,79.99
2022-10-21T09:51:11.480Z,80.22
2022-10-21T09:53:53.706Z,80.55
2022-10-21T09:56:26.921Z,80.00
2022-10-21T09:59:08.555Z,80.05
2022-10-21T10:01:38.665Z,80.66
2022-10-21T10:04:13.537Z,80.68
2022-10-21T10:06:43.787Z,80.52
2022-10-21T10:09:26.293Z,79.83
2022-10-21T10:11:58.601Z,80.87
2022-10-21T10:14:33.396Z,80.61
2022-10-21T10:17:28.881Z,80.45
2022-10-21T10:20:20.409Z,80.26
2022-10-21T10:23:10.756Z,80.89
2022-10-21T10:25:40.567Z,80.21
2022-10-21T10:28:24.659Z,80.45
2022-10-21T10:30:56.956Z,81.25
2022-10-21T10:33:28.970Z,80.83
2022-10-21T10:35:59.701Z,80.80
2022-10-21T10:38:35.285Z,80.54
2022-10-21T10:41:09.146Z,80.20
2022-10-21T10:43:45.630Z,80.13
2022-10-21T10:46:26.055Z,79.79
2022-10-21T10:48:55.586Z,80.15
2022-10-21T10:51:32.324Z,79.72
2022-10-21T10:54:04.233Z,79.82
2022-10-21T10:56:38.866Z,79.59
2022-10-21T10:59:17.905Z,79.20
2022-10-21T11:01:57.745Z,79.22
2022-10-21T11:04:34.694Z,79.07
2022-10-21T11:07:18.751Z,78.82
2022-10-21T11:09:47.718Z,79.13
2022-10-21T11:12:23.583Z,78.99
2022-10-21T11:14:59.392Z,79.13
2022-10-21T11:17:37.955Z,79.04
2022-10-21T11:20:18.700Z,79.50
2022-10-21T11:22:56.645Z,80.00
2022-10-21T11:25:31.520Z,79.52
2022-10-21T11:28:15.670Z,79.32
2022-10-21T11:31:05.168Z,79.99
2022-10-21T11:33:47.876Z,80.17
2022-10-21T11:36:27.241Z,80.14
2022-10-21T11:39:36.913Z,79.91
2022-10-21T11:42:18.442Z,79.62
2022-10-21T11:45:06.949Z,79.58
2022-10-21T11:47:45.452Z,79.98
2022-10-21T11:50:26.195Z,78.95
2022-10-21T11:53:14.562Z,78.80
2022-10-21T11:55:54.682Z,79.52
2022-10-21T11:58:39.861Z,78.25
2022-10-21T12:01:25.551Z,78.47
2022-10-21T12:04:13.426Z,78.18
2022-10-21T12:06:52.773Z,77.61
2022-10-21T12:09:27.175Z,78.14
2022-10-21T12:12:01.365Z,76.92
2022-10-21T12:14:41.337Z,77.02
2022-10-21T12:17:14.742Z,77.09
2022-10-21T12:19:47.442Z,77.05
2022-10-21T12:22:17.078Z,76.74
2022-10-21T12:24:51.958Z,76.68
2022-10-21T12:27:30.917Z,76.41
2022-10-21T12:30:17.772Z,76.21
2022-10-21T12:33:04.435Z,76.14
2022-10-21T12:35:48.080Z,76.06
2022-10-21T12:38:43.144Z,76.01
2022-10-21T12:41:34.570Z,76.03
2022-10-21T12:44:18.635Z,76.09
2022-10-21T12:46:50.644Z,76.51
2022-10-21T12:49:30.579Z,76.08
2022-10-21T12:52:09.358Z,75.82
2022-10-21T12:54:50.888Z,75.98
2022-10-21T12:57:28.596Z,76.00
2022-10-21T13:00:51.037Z,75.77
2022-10-21T13:03:22.956Z,76.21
2022-10-21T13:06:07.272Z,75.72
2022-10-21T13:08:54.045Z,75.73
2022-10-21T13:11:39.717Z,76.08
2022-10-21T13:14:39.648Z,76.03
2022-10-21T13:17:27.919Z,75.85
2022-10-21T13:19:58.094Z,76.08
2022-10-21T13:22:36.862Z,75.53
2022-10-21T13:25:21.612Z,75.06
2022-10-21T13:27:55.202Z,75.66
2022-10-21T13:30:31.987Z,75.49
2022-10-21T13:33:03.100Z,75.25
2022-10-21T13:35:36.770Z,75.71
2022-10-21T13:38:19.799Z,75.38
2022-10-21T13:40:51.029Z,75.59
2022-10-21T13:43:28.808Z,75.03
2022-10-21T13:46:06.641Z,75.27
2022-10-21T13:48:40.293Z,74.38
2022-10-21T13:51:18.966Z,74.84
2022-10-21T13:53:48.442Z,74.54
2022-10-21T13:56:22.959Z,74.58
2022-10-21T13:58:53.164Z,73.90
2022-10-21T14:01:25.400Z,73.73
2022-10-21T14:03:55.571Z,73.73
2022-10-21T14:06:31.586Z,73.55
2022-10-21T14:09:04.153Z,74.27
2022-10-21T14:11:37.646Z,74.16
2022-10-21T14:14:11.479Z,73.64
2022-10-21T14:16:43.773Z,73.91
2022-10-21T14:19:19.823Z,74.11
2022-10-21T14:21:52.869Z,73.85
2022-10-21T14:24:32.349Z,74.00
2022-10-21T14:27:01.897Z,74.31
2022-10-21T14:29:33.872Z,74.00
2022-10-21T14:32:02.958Z,74.28
2022-10-21T14:34:33.694Z,74.10
2022-10-21T14:37:09.161Z,73.76
2022-10-21T14:39:40.424Z,73.73
2022-10-21T14:42:17.475Z,73.33
2022-10-21T14:44:48.099Z,73.70
2022-10-21T14:47:22.637Z,73.62
2022-10-21T14:49:54.684Z,73.60
2022-10-21T14:52:28.527Z,73.04
2022-10-21T14:55:00.969Z,73.22
2022-10-21T14:57:44.415Z,72.85
2022-10-21T15:00:29.216Z,72.74
2022-10-21T15:03:00.268Z,72.75
2022-10-21T15:05:36.666Z,72.67
2022-10-21T15:08:32.140Z,72.32
2022-10-21T15:11:30.988Z,73.13
2022-10-21T15:14:25.734Z,73.23
2022-10-21T15:16:57.882Z,72.86
2022-10-21T15:19:30.361Z,73.12
2022-10-21T15:22:01.587Z,72.84
2022-10-21T15:24:42.978Z,73.04
2022-10-21T15:27:18.770Z,73.39
2022-10-21T15:29:49.217Z,73.27
2022-10-21T15:32:25.471Z,73.38
2022-10-21T15:34:56.378Z,73.01
2022-10-21T15:37:24.518Z,73.00
2022-10-21T15:39:52.652Z,73.09
2022-10-21T15:42:20.709Z,73.30
2022-10-21T15:44:50.897Z,72.82
2022-10-21T15:47:20.719Z,72.98
2022-10-21T15:49:49.285Z,73.17
2022-10-21T15:52:18.264Z,72.95
2022-10-21T15:54:46.367Z,72.59
2022-10-21T15:57:19.093Z,72.43
2022-10-21T15:59:48.204Z,72.71
2022-10-21T16:02:18.298Z,72.93
2022-10-21T16:04:47.774Z,72.40
2022-10-21T16:07:21.438Z,72.31
2022-10-21T16:09:50.093Z,72.53
2022-10-21T16:12:20.682Z,72.28
2022-10-21T16:14:49.085Z,72.35
2022-10-21T16:17:17.544Z,71.95
2022-10-21T16:19:46.964Z,71.92
2022-10-21T16:22:20.547Z,72.22
2022-10-21T16:24:48.613Z,72.25
2022-10-21T16:27:26.554Z,72.83
2022-10-21T16:30:18.157Z,73.41
2022-10-21T16:32:46.883Z,73.19
2022-10-21T16:35:18.993Z,73.32
2022-10-21T16:37:48.546Z,73.16
2022-10-21T16:40:22.032Z,73.07
2022-10-21T16:42:50.995Z,72.91
2022-10-21T16:45:21.077Z,73.39
2022-10-21T16:47:53.443Z,73.20
2022-10-21T16:50:26.720Z,73.19
2022-10-21T16:52:54.933Z,73.09
2022-10-21T16:55:23.014Z,73.12
2022-10-21T16:57:51.044Z,73.38
2022-10-21T17:00:19.175Z,72.99
2022-10-21T17:02:50.407Z,72.83
2022-10-21T17:05:18.953Z,72.84
2022-10-21T17:07:48.365Z,73.25
2022-10-21T17:10:16.687Z,72.96
2022-10-21T17:12:45.207Z,73.83
2022-10-21T17:15:16.927Z,73.81
2022-10-21T17:17:45.071Z,73.54
2022-10-21T17:20:13.376Z,73.82
2022-10-21T17:22:41.520Z,73.55
2022-10-21T17:25:12.725Z,73.39
2022-10-21T17:27:41.285Z,73.42
2022-10-21T17:30:12.216Z,73.45
2022-10-21T17:35:14.207Z,73.59
2022-10-21T17:37:42.254Z,73.84
2022-10-21T17:40:17.921Z,73.22
2022-10-21T17:42:46.037Z,73.46
2022-10-21T17:45:16.037Z,73.15
2022-10-21T17:47:44.967Z,73.77
2022-10-21T17:50:14.619Z,73.64
2022-10-21T17:52:43.586Z,74.21
2022-10-21T17:55:13.158Z,73.48
2022-10-21T17:57:41.285Z,73.17
2022-10-21T18:00:10.818Z,73.03
2022-10-21T18:02:39.402Z,73.35
2022-10-21T18:05:10.893Z,73.14
2022-10-21T18:07:39.621Z,73.63
2022-10-21T18:10:09.459Z,73.16
2022-10-21T18:12:39.028Z,72.88
2022-10-21T18:15:08.592Z,73.13
2022-10-21T18:17:37.438Z,72.85
2022-10-21T18:20:07.986Z,73.18
2022-10-21T18:22:36.133Z,73.11
2022-10-21T18:25:04.357Z,73.18
2022-10-21T18:27:32.486Z,73.24
2022-10-21T18:30:03.992Z,73.31
2022-10-21T18:32:32.218Z,73.05
2022-10-21T18:35:00.269Z,73.13
2022-10-21T18:37:28.481Z,73.58
2022-10-21T18:39:58.909Z,73.91
2022-10-21T18:42:27.263Z,73.57
2022-10-21T18:44:55.411Z,73.79
2022-10-21T18:47:24.860Z,73.64
2022-10-21T18:49:53.572Z,73.52
2022-10-21T18:52:21.711Z,73.14
2022-10-21T18:54:49.792Z,73.20
2022-10-21T18:57:18.000Z,73.39
2022-10-21T18:59:46.145Z,73.01
2022-10-21T19:02:21.380Z,72.97
2022-10-21T19:04:51.500Z,72.87
2022-10-21T19:07:20.363Z,72.98
2022-10-21T19:09:48.508Z,73.14
2022-10-21T19:12:21.043Z,72.59
2022-10-21T19:14:51.380Z,72.80
2022-10-21T19:17:20.026Z,72.88
2022-10-21T19:19:48.103Z,72.36
2022-10-21T19:22:18.339Z,72.47
2022-10-21T19:24:46.464Z,72.54
2022-10-21T19:27:14.592Z,72.51
2022-10-21T19:29:43.368Z,72.87
2022-10-21T19:32:13.073Z,72.27
2022-10-21T19:34:41.188Z,72.43
2022-10-21T19:37:09.581Z,72.31
2022-10-21T19:39:39.268Z,72.35
2022-10-21T19:42:07.389Z,72.24
2022-10-21T19:44:35.572Z,72.23
2022-10-21T19:47:03.664Z,72.36
2022-10-21T19:49:31.793Z,72.21
2022-10-21T19:51:59.975Z,71.94
2022-10-21T19:54:28.219Z,71.85
2022-10-21T19:56:57.733Z,71.79
2022-10-21T19:59:25.922Z,71.50
2022-10-21T20:01:54.048Z,71.43
2022-10-21T20:04:22.619Z,71.45
2022-10-21T20:06:50.733Z,71.46
2022-10-21T20:09:18.806Z,71.46
2022-10-21T20:11:46.863Z,71.63
2022-10-21T20:14:16.755Z,71.28
2022-10-21T20:16:47.007Z,71.70
2022-10-21T20:19:15.445Z,71.51
2022-10-21T20:21:44.414Z,71.44
2022-10-21T20:24:15.625Z,71.20
2022-10-21T20:26:45.601Z,71.35
2022-10-21T20:29:15.382Z,70.98
2022-10-21T20:31:44.833Z,71.32
2022-10-21T20:34:14.220Z,71.61
2022-10-21T20:36:42.641Z,71.52
2022-10-21T20:39:12.022Z,71.54
2022-10-21T20:41:40.750Z,72.09
2022-10-21T20:44:16.027Z,71.89
2022-10-21T20:46:46.841Z,72.26
2022-10-21T20:49:14.948Z,72.42
2022-10-21T20:51:43.723Z,72.96
2022-10-21T20:54:15.626Z,73.17
2022-10-21T20:56:44.844Z,73.04
2022-10-21T20:59:16.071Z,73.46
2022-10-21T21:01:47.830Z,73.51
2022-10-21T21:04:18.142Z,73.82
2022-10-21T21:06:48.851Z,74.14
2022-10-21T21:12:07.900Z,73.56
2022-10-21T21:14:35.959Z,73.99
2022-10-21T21:17:06.418Z,74.05
2022-10-21T21:19:34.596Z,73.63
2022-10-21T21:22:03.769Z,74.19
2022-10-21T21:24:32.121Z,74.40
2022-10-21T21:27:00.208Z,73.94
2022-10-21T21:29:28.455Z,74.16
2022-10-21T21:31:56.518Z,74.85
2022-10-21T21:34:25.961Z,74.94
2022-10-21T21:36:54.036Z,75.02
2022-10-21T21:39:22.144Z,75.60
2022-10-21T21:41:50.225Z,75.15
2022-10-21T21:44:18.308Z,75.32
2022-10-21T21:46:46.410Z,75.27
2022-10-21T21:49:14.835Z,75.71
2022-10-21T21:51:44.238Z,75.24
2022-10-21T21:54:12.365Z,74.88
2022-10-21T21:56:40.416Z,74.97
2022-10-21T21:59:08.617Z,74.48
2022-10-21T22:01:36.823Z,74.62
2022-10-21T22:04:05.190Z,74.35
2022-10-21T22:06:36.900Z,74.17
2022-10-21T22:09:11.639Z,74.37
2022-10-21T22:11:40.100Z,74.54
2022-10-21T22:14:08.154Z,74.10
2022-10-21T22:16:36.840Z,74.29
2022-10-21T22:19:05.896Z,74.71
2022-10-21T22:21:34.030Z,74.57
2022-10-21T22:24:02.135Z,74.30
2022-10-21T22:26:31.564Z,75.07
2022-10-21T22:28:59.628Z,74.96
2022-10-21T22:31:30.435Z,74.96
2022-10-21T22:34:00.659Z,74.75
2022-10-21T22:36:29.170Z,74.27
2022-10-21T22:38:57.249Z,74.43
2022-10-21T22:41:25.310Z,74.46
2022-10-21T22:43:54.801Z,74.86
2022-10-21T22:46:34.335Z,75.35
2022-10-21T22:49:04.173Z,75.30
2022-10-21T22:51:32.878Z,75.66
2022-10-21T22:54:01.462Z,75.25
2022-10-21T22:56:30.030Z,75.06
2022-10-21T22:58:59.793Z,75.42
2022-10-21T23:01:30.313Z,75.48
2022-10-21T23:04:02.676Z,74.93
2022-10-21T23:06:31.280Z,75.15
2022-10-21T23:08:59.748Z,75.03
2022-10-21T23:11:28.425Z,74.99
2022-10-21T23:14:03.344Z,74.26
2022-10-21T23:16:37.906Z,74.47
2022-10-21T23:19:06.963Z,74.93
2022-10-21T23:21:35.172Z,75.30
2022-10-21T23:24:03.542Z,74.86
2022-10-21T23:26:31.609Z,74.80
2022-10-21T23:28:59.677Z,75.21
2022-10-21T23:31:27.809Z,75.05
2022-10-21T23:33:57.233Z,75.21
2022-10-21T23:36:25.454Z,75.00
2022-10-21T23:38:56.420Z,75.00
2022-10-21T23:41:24.908Z,75.18
2022-10-21T23:43:52.949Z,75.09
2022-10-21T23:46:21.525Z,74.83
2022-10-21T23:48:49.709Z,74.67
2022-10-21T23:51:19.628Z,74.69
2022-10-21T23:53:47.796Z,74.76
2022-10-21T23:56:15.881Z,74.61
2022-10-21T23:58:43.954Z,74.22
